KNSE/NSE METAR and TAF weather

Enter ICAO airport designator
Station Type Date Time Source
KNSE METAR 2020/01/27 16:56 UTC NOAA

KNSE 271656Z VRB04KT 10SM FEW010 SCT013 BKN060 15/11 A3001 RMK AO2 SLP149 T01500106 $


Station Type Date Time Source
KNSE Decoded METAR 2020/01/27 16:56 UTC NOAA

MILTON WHITING FIELD (NORTH), FL, United States (KNSE) 30-44N 87-01W 60M
Jan 27, 2020 - 11:56 AM EST / 2020.01.27 1656 UTC
Wind: Variable at 5 MPH (4 KT):0
Visibility: 10 mile(s):0
Sky conditions: mostly cloudy
Temperature: 59.0 F (15.0 C)
Dew Point: 51.1 F (10.6 C)
Relative Humidity: 74%
Pressure (altimeter): 30.01 in. Hg (1016 hPa)
ob: KNSE 271656Z VRB04KT 10SM FEW010 SCT013 BKN060 15/11 A3001 RMK AO2 SLP149 T01500106
cycle: 17

Station Type Date Time Source
KNSE TAF 2020/01/27 15:03 UTC NOAA

TAF KNSE 2715/2815 01008KT 9999 BKN025 BKN035 OVC050 NH2993INS
TEMPO 2715/2720 SCT005 BKN015
FM272200 01008KT 9999 SCT030 SCT050 QNH2990INS
FM280200 02006KT 9999 FEW030 QNH2996INS T18/2720Z T05/2812Z FN20071

Example: see airport list